Карточка аэропорта URRP

Внимание!
Информация на этой странице в стадии наполнения.
Если вы не увидели какой-то информации, или заметили неточность - пожалуйста сообщите нам!
Спасибо!
Команда RU-STAFF
Название аэропортаПлатов
Название аэропорта (англ.)Platov
Превышение282 ft. (86 m.)
Координаты47°29.634', 39°55.482'
Высота перехода3500 ft
Эшелон переходаFL50 (QNH >= 996); FL60 (QNH < 996)
Коды ответчика1001-1017
Зона ОрВДРостов-на-Дону РПИ (URRV)
Данные METARURRP 130000Z 14002MPS 9999 FEW///CB 22/18 Q1011 R23/CLRD70 TEMPO VRB10G18MPS 3000 -TSRAGR BKN004 BKN030CB RMK QFE750/1001
Проноз погоды (TAF)URRP 121958Z 1221/1321 24003G12MPS 9999 SCT030CB TX32/1312Z TN18/1302Z PROB40 TEMPO 1221/1318 26006G14MPS 6000 -TSRA FEW005 BKN016 BKN020CB BECMG 1318/1320 33003G12MPS
NOTAMshow/hide NOTAM
AWOS   TABLE

Информация о ВПП

ВПП Длина ВПП (м.) Покрытие Курс ВПП Частота ILS
233900Цементобетон226110.9
053900Цементобетон46111.5

Диспетчерские позиции

Позывной Наименование органа УВД Частота
URRP_GNDПлатов - руление119.0
URRP_TWRПлатов-Вышка119.7
URRP_R_APPПлатов - Круг121.2
URRP_DELПлатов-деливери127.1
URRP_APPПлатов-подход128.2



Спутниковое изображение